Time;durP1;ratioP1;P1;durP2;ratioP2;P2;SDS_P1;SDS_P2;PMS_P1;PMS_P2;Temp;Humidity;BMP_temperature;BMP_pressure;BME280_temperature;BME280_humidity;BME280_pressure;Samples;Min_cycle;Max_cycle;Signal;HPM_P1;HPM_P2
2022/06/20 00:01:22;;;;;;;6.10;1.63;;;14.50;87.40;;;;;;5014660;28;20030;-58
2022/06/20 00:03:48;;;;;;;8.68;1.60;;;14.40;88.50;;;;;;5015057;28;20058;-55
2022/06/20 00:06:17;;;;;;;7.05;1.60;;;14.40;88.10;;;;;;5014625;28;20034;-60
2022/06/20 00:08:43;;;;;;;7.50;1.60;;;14.30;89.10;;;;;;5014886;28;20030;-56
2022/06/20 00:11:21;;;;;;;10.13;2.20;;;14.30;89.20;;;;;;5014456;28;20045;-62
2022/06/20 00:13:51;;;;;;;8.10;1.70;;;14.30;89.00;;;;;;5014213;28;20042;-51
2022/06/20 00:16:18;;;;;;;5.93;1.70;;;14.30;89.90;;;;;;5014486;28;20092;-58
2022/06/20 00:18:45;;;;;;;7.18;1.67;;;14.30;89.90;;;;;;5014564;28;20034;-55
2022/06/20 00:21:13;;;;;;;5.82;1.67;;;14.30;89.60;;;;;;5014623;28;20503;-55
2022/06/20 00:23:38;;;;;;;4.88;1.60;;;14.30;90.10;;;;;;5014245;28;20477;-51
2022/06/20 00:26:04;;;;;;;7.03;2.00;;;14.30;90.10;;;;;;5014436;28;20045;-56
2022/06/20 00:28:31;;;;;;;8.43;1.90;;;14.30;90.10;;;;;;5014145;28;20017;-55
2022/06/20 00:30:56;;;;;;;8.35;2.10;;;14.30;90.10;;;;;;5014200;28;20030;-49
2022/06/20 00:33:22;;;;;;;6.07;1.52;;;14.20;90.30;;;;;;5014125;28;20440;-54
2022/06/20 00:35:48;;;;;;;12.57;2.35;;;14.20;90.40;;;;;;5014133;28;20050;-52
2022/06/20 00:38:21;;;;;;;8.00;2.55;;;14.20;90.60;;;;;;5014088;28;20026;-52
2022/06/20 00:40:59;;;;;;;6.70;2.03;;;14.10;90.70;;;;;;5000907;28;20482;-56
2022/06/20 00:43:47;;;;;;;8.77;1.80;;;14.10;90.70;;;;;;5013478;28;20036;-52
2022/06/20 00:46:28;;;;;;;7.50;1.75;;;14.00;90.80;;;;;;5013860;28;20026;-47
2022/06/20 00:49:33;;;;;;;9.35;2.17;;;14.00;91.00;;;;;;5013868;28;20064;-48
2022/06/20 00:52:18;;;;;;;8.85;2.10;;;14.00;91.30;;;;;;5013641;28;20132;-49
2022/06/20 00:54:51;;;;;;;6.40;2.15;;;14.00;91.50;;;;;;5014009;28;20097;-54
2022/06/20 00:57:35;;;;;;;10.70;2.20;;;13.90;91.60;;;;;;5013632;28;20045;-48
2022/06/20 01:00:11;;;;;;;9.27;2.00;;;13.90;91.50;;;;;;5000967;28;20013;-53
2022/06/20 01:02:47;;;;;;;9.50;2.17;;;13.90;91.80;;;;;;5012970;28;20076;-46
2022/06/20 01:05:22;;;;;;;7.47;2.65;;;13.80;91.60;;;;;;5013469;28;20025;-46
2022/06/20 01:07:55;;;;;;;10.63;2.17;;;13.80;91.90;;;;;;5013516;28;20109;-47
2022/06/20 01:10:21;;;;;;;9.20;2.25;;;13.80;91.80;;;;;;5013475;28;20092;-52
2022/06/20 01:13:03;;;;;;;9.77;2.13;;;13.70;92.40;;;;;;5010878;28;20040;-47
2022/06/20 01:15:37;;;;;;;12.50;2.83;;;13.70;91.90;;;;;;5013299;28;20636;-53
2022/06/20 01:18:09;;;;;;;10.00;2.33;;;13.70;92.10;;;;;;5013070;28;20026;-50
2022/06/20 01:20:37;;;;;;;8.85;2.10;;;13.70;92.30;;;;;;5013369;28;20022;-51
2022/06/20 01:23:23;;;;;;;11.27;2.53;;;13.70;92.20;;;;;;5013489;28;20080;-52
2022/06/20 01:25:55;;;;;;;8.20;2.03;;;13.60;92.00;;;;;;5013399;28;20029;-54
2022/06/20 01:28:26;;;;;;;9.43;2.40;;;13.60;92.10;;;;;;5013113;28;20488;-57
2022/06/20 01:30:52;;;;;;;11.55;2.20;;;13.60;92.20;;;;;;5013082;28;20026;-54
2022/06/20 01:33:20;;;;;;;7.38;1.95;;;13.60;92.30;;;;;;5012965;28;20385;-46
2022/06/20 01:38:32;;;;;;;9.65;2.33;;;13.50;91.90;;;;;;5012923;28;20115;-48
2022/06/20 01:43:44;;;;;;;7.70;2.30;;;13.50;92.20;;;;;;5013046;28;20096;-52
2022/06/20 01:46:11;;;;;;;11.52;2.55;;;13.50;92.20;;;;;;5012476;28;20493;-53
2022/06/20 01:48:43;;;;;;;8.65;2.00;;;13.40;92.20;;;;;;5012770;28;20030;-51
2022/06/20 01:51:19;;;;;;;9.48;2.00;;;13.40;92.50;;;;;;5012734;28;20366;-47
2022/06/20 01:53:46;;;;;;;10.02;2.50;;;13.30;92.10;;;;;;5012596;28;20041;-46
2022/06/20 01:56:12;;;;;;;5.72;1.80;;;13.30;92.40;;;;;;5012228;28;20358;-53
2022/06/20 01:58:46;;;;;;;5.75;2.10;;;13.30;92.40;;;;;;5012710;28;20041;-50
2022/06/20 02:01:14;;;;;;;9.18;2.13;;;13.30;92.50;;;;;;5012405;28;20401;-48
2022/06/20 02:03:41;;;;;;;9.07;2.10;;;13.30;92.40;;;;;;5012516;28;20109;-52
2022/06/20 02:06:10;;;;;;;7.40;2.25;;;13.30;92.60;;;;;;5012109;28;20125;-50
2022/06/20 02:08:38;;;;;;;9.82;2.10;;;13.20;92.70;;;;;;5012404;28;20034;-49
2022/06/20 02:11:07;;;;;;;7.90;2.40;;;13.20;92.80;;;;;;5012409;28;20053;-52
2022/06/20 02:13:37;;;;;;;11.32;2.45;;;13.20;92.80;;;;;;5012215;28;20121;-50
2022/06/20 02:16:07;;;;;;;11.68;2.72;;;13.30;92.90;;;;;;5011416;28;20080;-56
2022/06/20 02:18:35;;;;;;;7.35;2.25;;;13.30;92.50;;;;;;5010670;28;20025;-52
2022/06/20 02:21:05;;;;;;;7.10;2.10;;;13.30;92.70;;;;;;5012033;28;20056;-51
2022/06/20 02:23:35;;;;;;;11.93;2.28;;;13.30;92.50;;;;;;5010725;28;20030;-51
2022/06/20 02:26:05;;;;;;;9.38;2.08;;;13.40;92.40;;;;;;5011723;28;20817;-48
2022/06/20 02:28:38;;;;;;;9.82;2.33;;;13.40;92.30;;;;;;5012037;28;20065;-46
2022/06/20 02:31:06;;;;;;;8.52;2.08;;;13.40;92.20;;;;;;5011954;28;20452;-49
2022/06/20 02:33:33;;;;;;;7.00;2.25;;;13.50;92.20;;;;;;5011788;28;20022;-48
2022/06/20 02:36:00;;;;;;;8.93;2.33;;;13.50;91.80;;;;;;5011967;28;20030;-48
2022/06/20 02:38:27;;;;;;;10.45;2.50;;;13.50;91.90;;;;;;5011793;28;20382;-59
2022/06/20 02:40:55;;;;;;;10.48;2.30;;;13.50;91.70;;;;;;5011615;28;20018;-52
2022/06/20 02:43:37;;;;;;;9.50;2.08;;;13.50;91.70;;;;;;5011877;28;20033;-55
2022/06/20 02:46:09;;;;;;;7.70;2.05;;;13.40;91.60;;;;;;5011383;28;20022;-55
2022/06/20 02:48:36;;;;;;;7.47;2.15;;;13.40;91.50;;;;;;5011804;28;20109;-53
2022/06/20 02:51:06;;;;;;;7.30;2.03;;;13.30;91.40;;;;;;5011203;28;20068;-56
2022/06/20 02:53:47;;;;;;;7.18;2.35;;;13.30;91.50;;;;;;5011779;28;20034;-57
2022/06/20 02:56:16;;;;;;;6.78;1.98;;;13.30;91.20;;;;;;5011541;28;20025;-54
2022/06/20 02:58:47;;;;;;;6.57;1.85;;;13.20;91.20;;;;;;5011668;28;20075;-58
2022/06/20 03:01:35;;;;;;;12.00;2.60;;;13.20;91.20;;;;;;5011484;28;20025;-53
2022/06/20 03:04:02;;;;;;;9.70;2.17;;;13.20;91.60;;;;;;5011493;28;20409;-54
2022/06/20 03:06:39;;;;;;;10.80;2.50;;;13.10;91.60;;;;;;5011220;28;20381;-54
2022/06/20 03:09:05;;;;;;;7.10;2.22;;;13.00;91.80;;;;;;5011407;28;20101;-60
2022/06/20 03:11:34;;;;;;;9.32;2.20;;;13.00;92.10;;;;;;5011352;28;20053;-54
2022/06/20 03:14:02;;;;;;;;;;;13.00;92.00;;;;;;5011750;28;20367;-56
2022/06/20 03:16:28;;;;;;;10.07;2.17;;;12.90;92.00;;;;;;5009737;28;20380;-57
2022/06/20 03:18:57;;;;;;;11.05;2.65;;;12.90;92.40;;;;;;5011511;28;20030;-56
2022/06/20 03:21:27;;;;;;;12.20;2.38;;;12.90;92.30;;;;;;5011458;28;20030;-52
2022/06/20 03:23:53;;;;;;;10.68;2.30;;;12.80;92.60;;;;;;5011411;28;20022;-55
2022/06/20 03:26:22;;;;;;;4.40;1.88;;;12.80;92.80;;;;;;5010757;28;20026;-50
2022/06/20 03:28:48;;;;;;;7.90;2.00;;;12.80;93.00;;;;;;5011420;28;20036;-51
2022/06/20 03:31:14;;;;;;;11.15;2.30;;;12.70;93.30;;;;;;5011215;28;20042;-48
2022/06/20 03:33:40;;;;;;;6.68;2.15;;;12.70;93.30;;;;;;5011150;28;20029;-49
2022/06/20 03:36:15;;;;;;;8.77;1.95;;;12.70;93.50;;;;;;5010985;28;20378;-48
2022/06/20 03:38:44;;;;;;;10.05;2.38;;;12.70;93.30;;;;;;5011005;28;20535;-49
2022/06/20 03:41:12;;;;;;;10.82;2.55;;;12.70;93.30;;;;;;5011243;28;20030;-56
2022/06/20 03:43:41;;;;;;;8.57;2.03;;;12.70;93.30;;;;;;5011146;28;20032;-54
2022/06/20 03:46:21;;;;;;;9.10;2.40;;;12.70;93.20;;;;;;5011161;28;20092;-55
2022/06/20 03:49:16;;;;;;;10.55;2.30;;;12.70;93.50;;;;;;5011130;28;20026;-53
2022/06/20 03:51:45;;;;;;;7.35;1.95;;;12.60;93.30;;;;;;5002986;28;20054;-48
2022/06/20 03:54:27;;;;;;;7.30;2.13;;;12.60;93.40;;;;;;5010942;28;20026;-51
2022/06/20 03:57:08;;;;;;;9.07;2.00;;;12.60;93.40;;;;;;5010927;28;20120;-49
2022/06/20 03:59:47;;;;;;;9.00;2.58;;;12.60;93.60;;;;;;5010983;28;20033;-54
2022/06/20 04:02:22;;;;;;;7.65;2.10;;;12.60;93.60;;;;;;5010916;28;20120;-52
2022/06/20 04:05:05;;;;;;;11.15;2.47;;;12.60;93.90;;;;;;5010771;28;20018;-52
2022/06/20 04:07:53;;;;;;;13.38;2.63;;;12.70;93.50;;;;;;5010089;28;20034;-51
2022/06/20 04:13:36;;;;;;;11.38;2.22;;;12.60;93.90;;;;;;4998638;28;20033;-55
2022/06/20 04:16:11;;;;;;;9.10;2.60;;;12.70;94.10;;;;;;5010665;28;20022;-46
2022/06/20 04:18:56;;;;;;;9.57;2.20;;;12.70;93.90;;;;;;5001413;28;20042;-53
2022/06/20 04:21:33;;;;;;;8.38;2.10;;;12.70;94.00;;;;;;5010628;28;20025;-49
2022/06/20 04:24:12;;;;;;;7.85;2.25;;;12.70;94.10;;;;;;5010699;28;20164;-50
2022/06/20 04:26:48;;;;;;;9.85;2.53;;;12.70;94.20;;;;;;5010470;28;20018;-55
2022/06/20 04:29:19;;;;;;;10.82;2.65;;;12.80;94.10;;;;;;5010635;28;20026;-53
2022/06/20 04:32:16;;;;;;;8.05;2.20;;;12.90;94.00;;;;;;5010413;28;20045;-52
2022/06/20 04:34:49;;;;;;;10.77;3.13;;;12.90;94.30;;;;;;5010678;28;20026;-45
2022/06/20 04:37:24;;;;;;;8.98;2.42;;;13.00;94.00;;;;;;5010404;28;20050;-52
2022/06/20 04:40:15;;;;;;;10.88;2.42;;;13.10;94.30;;;;;;5013399;28;20100;-52
2022/06/20 04:42:46;;;;;;;8.93;2.17;;;13.20;93.60;;;;;;5014103;28;20029;-54
2022/06/20 04:45:37;;;;;;;8.48;2.03;;;13.20;93.60;;;;;;5014010;28;20018;-52
2022/06/20 04:48:09;;;;;;;9.10;2.28;;;13.30;93.20;;;;;;5013935;28;20030;-56
2022/06/20 04:50:35;;;;;;;9.15;2.45;;;13.40;93.00;;;;;;5013767;28;20048;-52
2022/06/20 04:53:08;;;;;;;12.52;2.30;;;13.50;92.60;;;;;;5014004;28;20497;-52
2022/06/20 04:55:38;;;;;;;8.65;2.10;;;13.60;92.20;;;;;;5013815;28;20485;-50
2022/06/20 04:58:08;;;;;;;12.55;2.10;;;13.80;92.20;;;;;;5013997;28;20380;-51
2022/06/20 05:00:42;;;;;;;10.38;2.60;;;14.00;91.70;;;;;;5013804;28;20032;-57
2022/06/20 05:03:13;;;;;;;8.35;2.60;;;14.30;90.60;;;;;;5013820;28;20030;-56
2022/06/20 05:05:43;;;;;;;8.30;2.00;;;14.60;90.50;;;;;;5013414;28;20021;-55
2022/06/20 05:08:13;;;;;;;9.57;2.60;;;14.90;87.70;;;;;;5012105;28;20022;-46
2022/06/20 05:11:03;;;;;;;6.38;1.90;;;15.20;86.40;;;;;;5020857;28;20045;-53
2022/06/20 05:13:38;;;;;;;9.40;2.08;;;15.50;86.90;;;;;;5009998;28;20049;-46
2022/06/20 05:16:06;;;;;;;8.23;2.20;;;15.60;85.00;;;;;;5005402;28;20022;-50
2022/06/20 05:18:40;;;;;;;9.35;1.92;;;15.70;83.90;;;;;;4999565;28;20388;-47
2022/06/20 05:21:14;;;;;;;10.63;2.13;;;15.70;84.20;;;;;;5013181;28;20033;-57
2022/06/20 05:23:41;;;;;;;6.53;1.70;;;15.60;83.80;;;;;;5013252;28;20469;-54
2022/06/20 05:26:12;;;;;;;6.22;1.88;;;15.50;82.70;;;;;;5013002;28;20022;-55
2022/06/20 05:28:39;;;;;;;5.68;1.77;;;15.40;84.20;;;;;;5013050;28;20483;-45
2022/06/20 05:31:06;;;;;;;5.60;1.70;;;15.50;86.40;;;;;;5012996;28;20046;-51
2022/06/20 05:33:56;;;;;;;9.13;1.92;;;15.60;84.30;;;;;;5012899;28;20018;-53
2022/06/20 05:36:29;;;;;;;7.45;1.83;;;15.70;83.00;;;;;;5012869;28;20029;-56
2022/06/20 05:39:09;;;;;;;8.40;1.80;;;15.90;84.30;;;;;;5012721;28;20026;-53
2022/06/20 05:41:35;;;;;;;8.55;1.92;;;16.00;83.00;;;;;;5012906;28;20022;-57
2022/06/20 05:44:04;;;;;;;6.15;1.52;;;16.20;82.30;;;;;;5012757;28;20034;-45
2022/06/20 05:46:45;;;;;;;6.10;1.98;;;16.40;80.80;;;;;;5013069;28;20054;-51
2022/06/20 05:49:16;;;;;;;8.15;1.98;;;16.70;81.80;;;;;;5012132;28;20022;-54
2022/06/20 05:51:44;;;;;;;7.70;1.90;;;17.10;79.10;;;;;;5012675;28;20041;-52
2022/06/20 05:54:24;;;;;;;8.27;2.20;;;17.50;75.60;;;;;;5011947;28;20508;-47
2022/06/20 05:56:58;;;;;;;9.85;2.17;;;17.70;76.30;;;;;;5006362;28;20042;-58
2022/06/20 05:59:27;;;;;;;9.00;1.60;;;18.40;72.60;;;;;;5000977;28;20025;-55
2022/06/20 06:01:57;;;;;;;6.25;1.52;;;18.90;71.50;;;;;;5010246;28;20385;-55
2022/06/20 06:04:38;;;;;;;8.02;1.77;;;19.50;69.00;;;;;;5011920;28;20380;-46
2022/06/20 06:07:13;;;;;;;6.18;1.95;;;20.00;66.00;;;;;;5011464;28;20470;-57
2022/06/20 06:09:50;;;;;;;5.68;1.67;;;20.40;63.40;;;;;;5011738;28;20029;-50
2022/06/20 06:12:24;;;;;;;6.15;1.60;;;21.00;64.90;;;;;;5012096;28;20083;-61
2022/06/20 06:14:59;;;;;;;4.57;1.40;;;21.60;63.60;;;;;;5012147;28;20070;-62
2022/06/20 06:17:49;;;;;;;4.80;1.38;;;21.70;59.30;;;;;;5010122;28;20053;-48
2022/06/20 06:20:21;;;;;;;3.97;1.30;;;22.30;60.80;;;;;;5010392;28;20044;-56
2022/06/20 06:22:56;;;;;;;3.78;1.10;;;22.80;57.30;;;;;;5006827;28;20029;-52
2022/06/20 06:25:37;;;;;;;3.72;1.17;;;22.80;54.50;;;;;;5010329;28;20056;-48
2022/06/20 06:28:24;;;;;;;4.05;1.27;;;23.00;54.20;;;;;;5006750;28;20151;-53
2022/06/20 06:31:09;;;;;;;5.50;1.17;;;23.30;53.80;;;;;;5009805;28;20161;-46
2022/06/20 06:33:51;;;;;;;4.15;1.20;;;23.70;52.70;;;;;;5011956;28;20022;-48
2022/06/20 06:36:28;;;;;;;4.53;1.08;;;24.10;50.70;;;;;;5003957;28;20020;-53
2022/06/20 06:39:12;;;;;;;5.60;1.48;;;24.20;52.30;;;;;;5011575;28;20030;-52
2022/06/20 06:41:43;;;;;;;5.63;1.70;;;24.00;48.30;;;;;;5011747;28;20029;-50
2022/06/20 06:44:24;;;;;;;5.28;1.30;;;24.00;47.60;;;;;;5011476;28;20516;-45
2022/06/20 06:46:53;;;;;;;6.82;1.23;;;24.10;49.00;;;;;;5011514;28;20026;-55
2022/06/20 06:49:24;;;;;;;3.80;1.20;;;24.40;46.30;;;;;;5010006;28;20060;-54
2022/06/20 06:52:05;;;;;;;4.30;1.20;;;24.50;46.20;;;;;;5011353;28;20080;-50
2022/06/20 06:54:47;;;;;;;3.85;1.20;;;24.80;47.40;;;;;;5011642;28;20025;-44
2022/06/20 06:57:43;;;;;;;4.60;1.10;;;24.60;46.20;;;;;;5011369;28;20109;-53
2022/06/20 07:00:19;;;;;;;4.10;1.08;;;25.00;45.30;;;;;;5003791;28;20428;-53
2022/06/20 07:02:54;;;;;;;4.22;1.10;;;25.10;43.00;;;;;;5010564;28;20065;-45
2022/06/20 07:05:30;;;;;;;3.30;0.95;;;25.30;44.80;;;;;;5011128;28;20037;-46
2022/06/20 07:08:20;;;;;;;3.20;1.23;;;25.60;42.70;;;;;;5011190;28;20053;-55
2022/06/20 07:11:01;;;;;;;4.38;1.10;;;25.70;47.00;;;;;;5010987;28;20030;-45
2022/06/20 07:13:45;;;;;;;2.95;1.10;;;26.10;41.80;;;;;;5011092;28;20042;-51
2022/06/20 07:16:32;;;;;;;2.20;0.77;;;26.60;41.00;;;;;;5011173;28;20038;-52
2022/06/20 07:18:59;;;;;;;3.25;1.00;;;26.90;42.90;;;;;;5004442;28;20018;-52
2022/06/20 07:21:27;;;;;;;2.92;1.05;;;26.80;39.20;;;;;;5010926;28;20108;-57
2022/06/20 07:23:59;;;;;;;4.20;1.00;;;26.70;40.20;;;;;;5003148;28;20022;-51
2022/06/20 07:26:37;;;;;;;3.65;0.93;;;27.00;41.20;;;;;;5010605;28;20251;-48
2022/06/20 07:29:11;;;;;;;4.60;1.52;;;27.30;41.60;;;;;;5002558;28;20041;-54
2022/06/20 07:31:43;;;;;;;3.25;1.00;;;27.40;36.90;;;;;;5006241;28;20030;-58
2022/06/20 07:34:14;;;;;;;3.20;1.00;;;27.30;37.70;;;;;;5010997;28;20490;-50
2022/06/20 07:37:20;;;;;;;1.50;0.70;;;27.30;37.70;;;;;;5006043;28;20029;-45
2022/06/20 07:40:08;;;;;;;5.30;1.10;;;27.40;39.00;;;;;;5005556;28;20042;-52
2022/06/20 07:42:51;;;;;;;4.35;1.02;;;27.60;36.90;;;;;;5011011;28;20022;-51
2022/06/20 07:45:29;;;;;;;3.72;1.10;;;27.80;37.60;;;;;;4994394;28;20030;-55
2022/06/20 07:47:58;;;;;;;2.45;0.90;;;27.80;35.20;;;;;;5009137;28;20034;-48
2022/06/20 07:50:32;;;;;;;5.10;1.10;;;27.50;37.20;;;;;;5010790;28;20105;-56
2022/06/20 07:53:01;;;;;;;3.10;1.05;;;27.50;36.30;;;;;;5010662;28;20057;-51
2022/06/20 07:55:30;;;;;;;6.63;1.30;;;27.80;38.90;;;;;;4996852;28;20030;-60
2022/06/20 07:58:12;;;;;;;2.75;1.00;;;28.30;37.20;;;;;;5010545;28;20079;-46
2022/06/20 08:00:51;;;;;;;3.88;1.00;;;28.40;36.50;;;;;;4994753;28;20114;-44
2022/06/20 08:03:26;;;;;;;;;;;28.70;35.30;;;;;;4999530;28;20042;-58
2022/06/20 08:06:20;;;;;;;6.97;1.48;;;28.60;34.20;;;;;;4992082;28;19920;-50
2022/06/20 08:09:12;;;;;;;3.22;1.10;;;28.50;38.40;;;;;;4996198;28;20105;-51
2022/06/20 08:12:20;;;;;;;4.25;1.10;;;29.20;37.20;;;;;;5008100;28;20036;-53
2022/06/20 08:15:23;;;;;;;3.08;1.13;;;29.30;33.30;;;;;;4967707;28;20043;-51
2022/06/20 08:17:51;;;;;;;4.30;1.10;;;29.50;33.70;;;;;;4963522;28;20566;-51
2022/06/20 08:20:18;;;;;;;3.30;1.00;;;29.90;34.50;;;;;;5003012;28;20512;-56
2022/06/20 08:22:58;;;;;;;5.35;1.00;;;29.80;35.20;;;;;;5014332;28;20026;-56
2022/06/20 08:25:34;;;;;;;3.83;1.00;;;29.70;33.20;;;;;;5014323;28;20084;-53
2022/06/20 08:28:11;;;;;;;4.43;0.95;;;29.50;36.10;;;;;;5014499;28;20026;-52
2022/06/20 08:30:58;;;;;;;2.60;1.00;;;29.60;34.70;;;;;;5001133;28;20041;-47
2022/06/20 08:33:38;;;;;;;4.40;1.20;;;29.60;34.90;;;;;;5013795;28;20477;-47
2022/06/20 08:36:10;;;;;;;5.22;1.00;;;29.60;35.80;;;;;;5013789;28;20488;-50
2022/06/20 08:38:40;;;;;;;8.02;1.73;;;29.20;38.70;;;;;;5013917;28;20477;-48
2022/06/20 08:41:11;;;;;;;6.00;1.30;;;29.20;36.10;;;;;;5014156;28;20030;-44
2022/06/20 08:44:11;;;;;;;4.00;1.00;;;29.10;38.00;;;;;;5013901;28;20026;-45
2022/06/20 08:46:45;;;;;;;3.28;1.10;;;28.80;36.00;;;;;;5007025;28;20034;-44
2022/06/20 08:50:08;;;;;;;4.25;1.02;;;28.70;37.10;;;;;;5011435;28;20519;-52
2022/06/20 08:52:43;;;;;;;3.60;0.90;;;28.20;36.50;;;;;;4996792;28;20559;-52
2022/06/20 08:55:08;;;;;;;4.07;1.20;;;28.00;37.60;;;;;;5012929;28;20053;-51
2022/06/20 08:57:53;;;;;;;2.85;1.10;;;28.00;37.50;;;;;;5013728;28;20336;-52
2022/06/20 09:00:18;;;;;;;3.45;1.08;;;27.90;38.40;;;;;;5013543;28;20026;-54
2022/06/20 09:02:44;;;;;;;5.45;1.20;;;28.00;39.20;;;;;;5013623;28;20041;-55
2022/06/20 09:05:28;;;;;;;3.58;1.10;;;28.10;35.90;;;;;;5013513;28;20437;-53
2022/06/20 09:08:12;;;;;;;5.72;1.10;;;28.20;37.30;;;;;;5013327;28;20366;-52
2022/06/20 09:10:43;;;;;;;4.15;1.20;;;28.00;38.40;;;;;;5010539;28;20123;-56
2022/06/20 09:13:29;;;;;;;4.47;1.30;;;27.80;35.50;;;;;;5009719;28;20022;-59
2022/06/20 09:16:22;;;;;;;3.55;1.10;;;27.70;36.90;;;;;;5013219;28;20036;-53
2022/06/20 09:18:51;;;;;;;4.38;1.20;;;27.70;36.50;;;;;;5011554;28;20381;-45
2022/06/20 09:21:31;;;;;;;3.58;1.15;;;27.90;39.50;;;;;;5013231;28;20080;-56
2022/06/20 09:24:05;;;;;;;3.55;1.05;;;28.20;37.80;;;;;;5004873;28;20075;-58
2022/06/20 09:27:10;;;;;;;4.55;1.17;;;28.00;36.00;;;;;;5012689;28;20057;-45
2022/06/20 09:29:54;;;;;;;4.03;1.10;;;27.60;35.90;;;;;;4954631;28;20496;-51
2022/06/20 09:32:44;;;;;;;5.00;1.30;;;27.50;40.80;;;;;;4970776;28;20579;-46
2022/06/20 09:35:30;;;;;;;3.95;1.38;;;27.70;38.60;;;;;;4990268;28;20117;-46
2022/06/20 09:38:33;;;;;;;5.72;1.45;;;27.70;39.30;;;;;;5000998;28;20022;-57
2022/06/20 09:41:07;;;;;;;4.55;1.38;;;28.00;40.50;;;;;;5003991;28;20101;-51
2022/06/20 09:43:36;;;;;;;4.57;1.10;;;28.10;35.90;;;;;;4998705;28;20477;-56
2022/06/20 09:46:28;;;;;;;4.70;1.25;;;27.70;37.10;;;;;;5000033;28;20444;-40
2022/06/20 09:49:05;;;;;;;3.63;1.23;;;27.70;40.80;;;;;;5009431;28;20045;-47
2022/06/20 09:51:59;;;;;;;2.65;1.15;;;28.00;39.30;;;;;;5011818;28;20088;-46
2022/06/20 09:54:53;;;;;;;4.65;1.38;;;28.30;39.50;;;;;;5011127;28;20036;-49
2022/06/20 09:57:43;;;;;;;2.85;1.25;;;28.00;36.10;;;;;;5011984;28;20026;-46
2022/06/20 10:00:12;;;;;;;4.10;1.38;;;27.70;37.10;;;;;;5012728;28;20050;-46
2022/06/20 10:02:43;;;;;;;7.20;1.65;;;28.40;39.10;;;;;;5011368;28;20018;-55
2022/06/20 10:05:24;;;;;;;6.85;1.20;;;28.30;39.90;;;;;;5012125;28;20022;-51
2022/06/20 10:07:57;;;;;;;5.20;1.42;;;28.50;38.00;;;;;;5012266;28;20504;-49
2022/06/20 10:10:53;;;;;;;5.45;1.70;;;28.30;34.70;;;;;;5012563;28;20072;-43
2022/06/20 10:13:33;;;;;;;3.55;1.20;;;27.90;36.70;;;;;;5012126;28;20120;-52
2022/06/20 10:16:05;;;;;;;5.00;1.35;;;28.00;37.30;;;;;;5011900;28;20109;-47
2022/06/20 10:18:40;;;;;;;5.30;1.20;;;28.30;37.00;;;;;;5011987;28;20018;-49
2022/06/20 10:21:11;;;;;;;3.95;1.15;;;28.40;37.80;;;;;;5012094;28;20033;-49
2022/06/20 10:23:46;;;;;;;3.17;1.27;;;28.60;38.10;;;;;;5012154;28;20041;-52
2022/06/20 10:26:36;;;;;;;5.57;1.30;;;28.70;38.20;;;;;;5011968;28;20030;-46
2022/06/20 10:29:25;;;;;;;4.20;1.33;;;28.70;36.90;;;;;;5000442;28;20030;-60
2022/06/20 10:32:13;;;;;;;8.20;1.48;;;28.30;35.10;;;;;;5011986;28;20120;-48
2022/06/20 10:34:45;;;;;;;3.67;1.35;;;28.40;36.90;;;;;;5012051;28;20057;-49
2022/06/20 10:37:26;;;;;;;3.70;1.30;;;28.50;36.70;;;;;;5011884;28;20034;-46
2022/06/20 10:40:00;;;;;;;3.75;1.38;;;28.50;38.60;;;;;;5011985;28;20018;-49
2022/06/20 10:42:54;;;;;;;3.97;1.25;;;28.60;39.80;;;;;;5011946;28;20535;-43
2022/06/20 10:45:49;;;;;;;3.53;1.25;;;28.30;37.70;;;;;;5007597;28;20105;-49
2022/06/20 10:48:33;;;;;;;4.00;1.70;;;28.20;38.30;;;;;;5011443;28;20060;-48
2022/06/20 10:51:41;;;;;;;5.53;1.73;;;28.10;38.80;;;;;;5011693;28;20034;-58
2022/06/20 10:54:21;;;;;;;6.20;1.50;;;28.30;41.60;;;;;;5010224;28;20033;-47
2022/06/20 10:57:00;;;;;;;4.43;1.30;;;28.20;37.40;;;;;;5011711;28;20026;-59
2022/06/20 10:59:35;;;;;;;5.88;1.35;;;27.80;34.80;;;;;;5005378;28;20106;-53
2022/06/20 11:02:30;;;;;;;4.75;1.40;;;27.60;39.00;;;;;;5005356;28;20026;-57
2022/06/20 11:05:19;;;;;;;4.55;1.60;;;27.10;35.00;;;;;;5010337;28;20052;-49
2022/06/20 11:07:49;;;;;;;6.53;1.50;;;26.60;37.90;;;;;;5011339;28;20065;-45
2022/06/20 11:10:29;;;;;;;4.95;1.48;;;26.70;42.00;;;;;;5010645;28;20048;-59
2022/06/20 11:12:55;;;;;;;4.90;1.33;;;27.10;42.60;;;;;;4994185;28;20513;-47
2022/06/20 11:15:49;;;;;;;3.88;1.40;;;27.30;41.50;;;;;;5002422;28;20038;-47
2022/06/20 11:18:48;;;;;;;4.20;1.42;;;27.40;36.00;;;;;;5011167;28;20469;-52
2022/06/20 11:21:27;;;;;;;4.18;1.38;;;27.50;40.90;;;;;;5009352;28;20030;-55
2022/06/20 11:24:25;;;;;;;5.30;1.52;;;27.60;39.70;;;;;;5011081;28;20512;-43
2022/06/20 11:27:27;;;;;;;4.38;1.50;;;27.70;37.70;;;;;;5007968;28;20463;-47
2022/06/20 11:30:09;;;;;;;5.70;1.60;;;27.20;36.00;;;;;;5006376;28;20037;-45
2022/06/20 11:32:54;;;;;;;3.47;1.40;;;27.20;41.10;;;;;;5001579;28;20108;-46
2022/06/20 11:35:45;;;;;;;5.95;1.38;;;26.90;35.50;;;;;;4993112;28;20093;-46
2022/06/20 11:38:31;;;;;;;5.10;1.50;;;26.30;36.30;;;;;;4999400;28;20030;-55
2022/06/20 11:41:03;;;;;;;6.95;1.77;;;26.40;41.90;;;;;;4999399;28;20021;-52
2022/06/20 11:43:57;;;;;;;6.10;1.67;;;26.40;40.50;;;;;;5010951;28;20100;-56
2022/06/20 11:46:35;;;;;;;6.05;1.45;;;26.30;36.90;;;;;;5011301;28;20034;-53
2022/06/20 11:49:07;;;;;;;5.10;1.60;;;25.90;39.30;;;;;;5014073;28;20473;-54
2022/06/20 11:52:01;;;;;;;5.22;1.55;;;26.00;40.40;;;;;;5014995;28;20052;-51
2022/06/20 11:54:33;;;;;;;4.38;1.67;;;26.10;40.00;;;;;;5014989;28;20389;-54
2022/06/20 11:57:14;;;;;;;4.32;1.50;;;26.20;40.00;;;;;;5014972;28;20084;-52
2022/06/20 11:59:56;;;;;;;3.30;1.30;;;26.20;40.10;;;;;;5013353;28;20080;-49
2022/06/20 12:02:45;;;;;;;4.88;1.40;;;26.20;38.70;;;;;;5011448;28;20038;-55
2022/06/20 12:05:17;;;;;;;5.80;1.52;;;26.10;39.40;;;;;;5014574;28;20065;-54
2022/06/20 12:07:49;;;;;;;6.97;1.85;;;25.70;36.40;;;;;;5014526;28;20022;-46
2022/06/20 12:10:37;;;;;;;5.90;1.88;;;25.70;40.80;;;;;;5014381;28;20022;-49
2022/06/20 12:13:37;;;;;;;6.15;1.70;;;25.80;40.50;;;;;;5014756;28;20042;-57
2022/06/20 12:16:17;;;;;;;6.95;1.75;;;25.90;39.30;;;;;;4972882;28;20042;-52
2022/06/20 12:24:27;;;;;;;6.15;1.90;;;25.80;38.10;;;;;;4971323;28;20446;-44
2022/06/20 12:26:54;;;;;;;7.75;1.55;;;25.90;41.70;;;;;;4975219;28;20506;-42
2022/06/20 12:29:23;;;;;;;5.72;1.70;;;25.40;38.40;;;;;;4975332;28;20390;-45
2022/06/20 12:31:53;;;;;;;5.95;1.70;;;25.50;41.90;;;;;;4975131;28;20023;-43
2022/06/20 12:34:47;;;;;;;6.75;1.80;;;25.50;40.70;;;;;;4975249;28;20081;-54
2022/06/20 12:37:26;;;;;;;4.95;1.67;;;25.20;40.40;;;;;;4972459;28;20018;-48
2022/06/20 12:39:55;;;;;;;;;;;24.90;40.60;;;;;;4974924;28;20027;-46
2022/06/20 12:42:23;;;;;;;7.25;1.83;;;24.90;44.30;;;;;;4974175;28;20384;-46
2022/06/20 12:45:23;;;;;;;4.60;1.67;;;25.00;40.30;;;;;;4974678;28;20054;-46
2022/06/20 12:48:01;;;;;;;6.65;1.80;;;24.90;42.10;;;;;;4972812;28;20602;-44
2022/06/20 12:50:48;;;;;;;5.50;1.75;;;24.80;42.00;;;;;;4974577;28;20089;-57
2022/06/20 12:53:37;;;;;;;5.68;1.98;;;24.60;42.40;;;;;;4974848;28;20030;-43
2022/06/20 12:56:29;;;;;;;5.25;1.73;;;24.30;43.90;;;;;;4974855;28;20081;-52
2022/06/20 12:59:01;;;;;;;5.22;2.00;;;24.00;42.20;;;;;;4973182;28;20046;-54
2022/06/20 13:01:52;;;;;;;7.28;1.90;;;24.20;44.00;;;;;;4974779;28;20033;-46
2022/06/20 13:04:47;;;;;;;5.35;1.55;;;24.10;41.00;;;;;;4974401;28;20062;-42
2022/06/20 13:07:42;;;;;;;5.78;1.80;;;23.80;44.50;;;;;;4968394;28;20019;-45
2022/06/20 13:10:23;;;;;;;4.47;1.70;;;23.70;42.60;;;;;;4959802;28;20070;-53
2022/06/20 13:12:56;;;;;;;5.35;1.92;;;23.80;41.60;;;;;;4972581;28;20051;-42
2022/06/20 13:15:37;;;;;;;5.18;2.00;;;23.90;45.20;;;;;;5006760;28;20048;-45
2022/06/20 13:18:22;;;;;;;5.28;1.83;;;24.20;44.10;;;;;;5004079;28;20564;-41
2022/06/20 13:20:59;;;;;;;7.20;1.83;;;23.90;41.70;;;;;;4996399;28;20045;-45
2022/06/20 13:23:47;;;;;;;6.90;2.08;;;23.60;40.70;;;;;;4996012;28;20466;-43
2022/06/20 13:26:18;;;;;;;6.57;2.38;;;23.20;41.90;;;;;;4997526;28;20378;-43
2022/06/20 13:28:55;;;;;;;7.00;1.90;;;23.10;42.50;;;;;;4994161;28;20381;-49
2022/06/20 13:31:31;;;;;;;4.63;1.67;;;23.20;44.10;;;;;;4996126;28;20077;-45
2022/06/20 13:34:06;;;;;;;6.93;1.95;;;23.20;44.60;;;;;;5010891;28;20067;-55
2022/06/20 13:36:44;;;;;;;6.68;2.05;;;23.10;43.50;;;;;;5013082;28;20115;-55
2022/06/20 13:39:31;;;;;;;6.80;1.95;;;23.00;43.50;;;;;;5008659;28;20018;-52
2022/06/20 13:42:11;;;;;;;6.88;2.17;;;23.00;43.60;;;;;;5000504;28;20026;-59
2022/06/20 13:44:46;;;;;;;6.30;2.00;;;23.00;42.80;;;;;;5009601;28;20029;-54
2022/06/20 13:47:28;;;;;;;6.15;2.08;;;22.90;45.20;;;;;;4995621;28;20125;-56
2022/06/20 13:50:18;;;;;;;5.55;2.05;;;23.00;42.70;;;;;;5011406;28;20040;-52
2022/06/20 13:52:56;;;;;;;9.52;2.05;;;22.90;43.70;;;;;;5012414;28;20032;-47